TimeMDT,TemperatureF,Dew PointF,Humidity,Sea Level PressureIn,VisibilityMPH,Wind Direction,Wind SpeedMPH,Gust SpeedMPH,PrecipitationIn,Events,Conditions,WindDirDegrees,DateUTC
12:15 AM,27.9,16.5,62,30.23,10.0,WNW,3.5,-,N/A,,Clear,300,2013-10-17 06:15:00
12:35 AM,24.6,14.5,66,30.23,10.0,Calm,Calm,-,N/A,,Clear,0,2013-10-17 06:35:00
12:55 AM,27.9,15.6,60,30.22,10.0,Calm,Calm,-,N/A,,Clear,0,2013-10-17 06:55:00
1:15 AM,22.8,14.4,70,30.22,10.0,Calm,Calm,-,N/A,,Clear,0,2013-10-17 07:15:00
1:35 AM,26.6,16.5,66,30.22,10.0,NW,10.4,-,N/A,,Clear,320,2013-10-17 07:35:00
1:55 AM,26.6,16.9,67,30.22,10.0,NW,13.8,-,N/A,,Clear,320,2013-10-17 07:55:00
2:15 AM,27.0,16.9,66,30.22,10.0,NW,13.8,-,N/A,,Clear,310,2013-10-17 08:15:00
2:35 AM,27.1,16.5,64,30.22,10.0,NW,5.8,-,N/A,,Clear,310,2013-10-17 08:35:00
2:55 AM,25.5,16.3,68,30.22,10.0,NW,11.5,-,N/A,,Clear,320,2013-10-17 08:55:00
3:15 AM,24.4,16.2,71,30.22,10.0,WNW,6.9,-,N/A,,Clear,300,2013-10-17 09:15:00
3:35 AM,23.7,15.8,72,30.22,10.0,NW,6.9,-,N/A,,Clear,320,2013-10-17 09:35:00
3:55 AM,22.1,15.4,76,30.21,10.0,NNW,5.8,-,N/A,,Clear,330,2013-10-17 09:55:00
4:15 AM,20.5,14.9,79,30.21,10.0,NNW,6.9,-,N/A,,Clear,330,2013-10-17 10:15:00
4:35 AM,19.9,14.9,81,30.21,10.0,NW,6.9,-,N/A,,Clear,310,2013-10-17 10:35:00
4:55 AM,21.2,14.5,75,30.21,10.0,WNW,6.9,-,N/A,,Clear,300,2013-10-17 10:55:00
5:15 AM,22.3,15.3,74,30.22,10.0,WNW,8.1,-,N/A,,Clear,300,2013-10-17 11:15:00
5:35 AM,23.9,15.6,71,30.22,10.0,WNW,8.1,-,N/A,,Clear,300,2013-10-17 11:35:00
5:55 AM,23.7,15.8,72,30.22,10.0,WNW,9.2,-,N/A,,Clear,300,2013-10-17 11:55:00
6:15 AM,20.5,14.4,77,30.22,10.0,NW,8.1,-,N/A,,Clear,320,2013-10-17 12:15:00
6:35 AM,20.3,14.9,80,30.22,10.0,NW,8.1,-,N/A,,Clear,310,2013-10-17 12:35:00
6:55 AM,20.1,14.7,80,30.23,10.0,WNW,6.9,-,N/A,,Clear,300,2013-10-17 12:55:00
7:15 AM,18.5,13.5,81,30.23,10.0,NW,6.9,-,N/A,,Clear,320,2013-10-17 13:15:00
7:35 AM,18.3,13.8,83,30.23,10.0,NW,6.9,-,N/A,,Clear,320,2013-10-17 13:35:00
7:55 AM,20.3,14.7,79,30.23,10.0,NW,3.5,-,N/A,,Clear,310,2013-10-17 13:55:00
8:15 AM,23.9,16.2,72,30.23,10.0,NW,4.6,-,N/A,,Clear,320,2013-10-17 14:15:00
8:35 AM,27.3,17.1,65,30.24,10.0,NW,6.9,-,N/A,,Clear,320,2013-10-17 14:35:00
8:55 AM,29.1,17.2,61,30.24,10.0,NNW,5.8,-,N/A,,Clear,330,2013-10-17 14:55:00
9:15 AM,32.0,16.9,54,30.24,10.0,NNW,5.8,-,N/A,,Clear,330,2013-10-17 15:15:00
9:35 AM,34.9,16.7,48,30.24,10.0,NW,3.5,-,N/A,,Clear,310,2013-10-17 15:35:00
9:55 AM,38.1,16.3,41,30.24,10.0,NW,3.5,-,N/A,,Clear,310,2013-10-17 15:55:00
10:15 AM,40.8,16.5,37,30.24,10.0,NW,3.5,-,N/A,,Clear,320,2013-10-17 16:15:00
10:35 AM,43.9,16.2,33,30.23,10.0,NNW,4.6,-,N/A,,Clear,330,2013-10-17 16:35:00
10:55 AM,46.0,16.0,30,30.22,10.0,North,4.6,-,N/A,,Clear,360,2013-10-17 16:55:00
11:15 AM,49.5,16.2,27,30.21,10.0,North,5.8,-,N/A,,Clear,360,2013-10-17 17:15:00
11:35 AM,52.7,15.6,23,30.20,10.0,NNW,6.9,-,N/A,,Clear,340,2013-10-17 17:35:00
11:55 AM,53.4,15.3,22,30.20,10.0,NNW,5.8,-,N/A,,Clear,340,2013-10-17 17:55:00
12:15 PM,54.9,16.2,22,30.18,10.0,NNE,3.5,-,N/A,,Clear,30,2013-10-17 18:15:00
12:35 PM,56.5,15.4,20,30.17,10.0,NNE,9.2,-,N/A,,Clear,20,2013-10-17 18:35:00
12:55 PM,56.7,14.7,19,30.16,10.0,NNW,8.1,-,N/A,,Clear,330,2013-10-17 18:55:00
1:15 PM,57.0,14.0,18,30.14,10.0,NW,3.5,-,N/A,,Clear,310,2013-10-17 19:15:00
1:35 PM,59.4,12.2,16,30.14,10.0,North,11.5,16.1,N/A,,Clear,10,2013-10-17 19:35:00
1:55 PM,60.4,12.6,15,30.12,10.0,NNW,6.9,-,N/A,,Clear,340,2013-10-17 19:55:00
2:15 PM,60.8,11.3,14,30.11,10.0,North,9.2,-,N/A,,Clear,360,2013-10-17 20:15:00
2:35 PM,62.2,12.2,14,30.11,10.0,North,9.2,-,N/A,,Clear,350,2013-10-17 20:35:00
2:55 PM,61.9,12.2,14,30.10,10.0,North,4.6,-,N/A,,Clear,10,2013-10-17 20:55:00
3:15 PM,62.2,12.4,14,30.09,10.0,Calm,Calm,-,N/A,,Clear,0,2013-10-17 21:15:00
3:35 PM,62.2,13.1,15,30.08,10.0,North,10.4,-,N/A,,Clear,10,2013-10-17 21:35:00
3:55 PM,61.7,10.9,14,30.07,10.0,North,10.4,-,N/A,,Clear,360,2013-10-17 21:55:00
4:15 PM,61.7,10.9,14,30.07,10.0,North,11.5,-,N/A,,Clear,350,2013-10-17 22:15:00
4:35 PM,62.2,11.7,14,30.06,10.0,North,9.2,-,N/A,,Clear,350,2013-10-17 22:35:00
4:55 PM,61.9,11.8,14,30.06,10.0,NNW,8.1,-,N/A,,Clear,330,2013-10-17 22:55:00
5:15 PM,61.3,10.9,14,30.06,10.0,North,9.2,-,N/A,,Clear,350,2013-10-17 23:15:00
5:35 PM,60.8,11.7,15,30.06,10.0,NNW,8.1,-,N/A,,Clear,330,2013-10-17 23:35:00
5:55 PM,59.9,11.3,15,30.06,10.0,North,8.1,-,N/A,,Clear,350,2013-10-17 23:55:00
6:15 PM,57.2,14.0,18,30.06,10.0,West,4.6,-,N/A,,Clear,280,2013-10-18 00:15:00
6:35 PM,53.1,14.4,22,30.06,10.0,WSW,3.5,-,N/A,,Clear,250,2013-10-18 00:35:00
6:55 PM,50.5,14.0,23,30.06,10.0,WSW,6.9,-,N/A,,Clear,240,2013-10-18 00:55:00
7:15 PM,49.5,13.8,24,30.07,10.0,WSW,8.1,-,N/A,,Clear,250,2013-10-18 01:15:00
7:35 PM,47.7,13.6,26,30.07,10.0,WSW,8.1,-,N/A,,Clear,250,2013-10-18 01:35:00
7:55 PM,47.1,12.4,25,30.07,10.0,West,4.6,-,N/A,,Clear,270,2013-10-18 01:55:00
8:15 PM,48.2,10.2,22,30.07,10.0,West,6.9,-,N/A,,Clear,260,2013-10-18 02:15:00
8:35 PM,48.7,8.6,20,30.07,10.0,West,9.2,-,N/A,,Clear,260,2013-10-18 02:35:00
8:55 PM,48.4,7.7,19,30.08,10.0,West,8.1,-,N/A,,Clear,260,2013-10-18 02:55:00
9:15 PM,47.1,7.7,20,30.09,10.0,North,4.6,-,N/A,,Clear,10,2013-10-18 03:15:00
9:35 PM,45.9,9.0,22,30.09,10.0,North,5.8,-,N/A,,Clear,360,2013-10-18 03:35:00
9:55 PM,45.0,10.2,24,30.09,10.0,WNW,6.9,-,N/A,,Clear,300,2013-10-18 03:55:00
10:15 PM,39.4,11.8,32,30.09,10.0,NNW,6.9,-,N/A,,Clear,330,2013-10-18 04:15:00
10:35 PM,37.0,13.1,37,30.10,10.0,NW,6.9,-,N/A,,Clear,310,2013-10-18 04:35:00
10:55 PM,37.6,13.3,37,30.10,10.0,NW,6.9,-,N/A,,Clear,310,2013-10-18 04:55:00
11:15 PM,36.7,13.5,39,30.10,10.0,NW,5.8,-,N/A,,Clear,310,2013-10-18 05:15:00
11:35 PM,37.4,13.3,37,30.10,10.0,WNW,5.8,-,N/A,,Clear,300,2013-10-18 05:35:00
11:55 PM,35.6,13.8,41,30.10,10.0,NW,5.8,-,N/A,,Clear,310,2013-10-18 05:55:00